createdAt,value
2023-02-01T00:00:18.821Z,25.80
2023-02-01T00:03:06.429Z,35.45
2023-02-01T00:05:59.373Z,32.53
2023-02-01T00:08:44.876Z,24.63
2023-02-01T00:11:30.173Z,29.55
2023-02-01T00:14:15.603Z,34.50
2023-02-01T00:17:00.788Z,30.13
2023-02-01T00:19:45.970Z,25.05
2023-02-01T00:22:31.196Z,18.45
2023-02-01T00:25:16.675Z,29.67
2023-02-01T00:28:01.985Z,26.05
2023-02-01T00:30:47.020Z,26.00
2023-02-01T00:33:33.527Z,24.27
2023-02-01T00:36:19.898Z,31.60
2023-02-01T00:39:05.592Z,23.50
2023-02-01T00:41:50.749Z,32.72
2023-02-01T00:44:36.797Z,27.80
2023-02-01T00:47:21.964Z,32.30
2023-02-01T00:50:07.464Z,28.83
2023-02-01T00:52:52.788Z,28.88
2023-02-01T00:55:38.636Z,18.90
2023-02-01T00:58:27.398Z,29.92
2023-02-01T01:01:22.484Z,22.17
2023-02-01T01:04:07.731Z,27.52
2023-02-01T01:06:52.936Z,22.42
2023-02-01T01:09:38.390Z,28.00
2023-02-01T01:12:23.761Z,25.17
2023-02-01T01:15:09.632Z,23.30
2023-02-01T01:17:55.114Z,24.23
2023-02-01T01:20:41.679Z,16.17
2023-02-01T01:23:27.192Z,20.58
2023-02-01T01:26:18.789Z,20.60
2023-02-01T01:29:04.721Z,19.92
2023-02-01T01:31:50.143Z,23.60
2023-02-01T01:34:35.391Z,17.60
2023-02-01T01:37:20.923Z,27.23
2023-02-01T01:40:07.821Z,22.30
2023-02-01T01:42:55.150Z,27.42
2023-02-01T01:45:40.939Z,22.75
2023-02-01T01:48:31.162Z,28.55
2023-02-01T01:51:20.653Z,23.30
2023-02-01T01:54:14.463Z,26.95
2023-02-01T01:57:05.811Z,25.30
2023-02-01T02:00:06.470Z,24.85
2023-02-01T02:03:04.321Z,30.70
2023-02-01T02:05:51.716Z,25.50
2023-02-01T02:08:37.114Z,27.48
2023-02-01T02:11:26.898Z,20.73
2023-02-01T02:14:14.523Z,19.02
2023-02-01T02:17:04.762Z,22.13
2023-02-01T02:20:29.906Z,16.55
2023-02-01T02:23:54.230Z,23.58
2023-02-01T02:27:23.788Z,19.35
2023-02-01T02:33:50.690Z,21.40
2023-02-01T02:36:51.144Z,14.15
2023-02-01T02:39:55.311Z,26.23
2023-02-01T02:43:04.970Z,26.88
2023-02-01T02:49:26.511Z,21.33
2023-02-01T02:52:37.654Z,20.42
2023-02-01T02:55:24.205Z,29.85
2023-02-01T02:58:32.920Z,24.00
2023-02-01T03:01:36.834Z,23.95
2023-02-01T03:04:22.101Z,24.75
2023-02-01T03:07:46.501Z,28.35
2023-02-01T03:11:03.398Z,34.13
2023-02-01T03:13:53.896Z,28.33
2023-02-01T03:16:50.358Z,23.83
2023-02-01T03:19:48.277Z,24.50
2023-02-01T03:22:36.019Z,27.10
2023-02-01T03:25:29.767Z,35.72
2023-02-01T03:28:17.651Z,24.65
2023-02-01T03:31:03.904Z,30.40
2023-02-01T03:33:49.593Z,26.33
2023-02-01T03:36:51.638Z,21.92
2023-02-01T03:39:51.028Z,21.88
2023-02-01T03:42:44.704Z,27.27
2023-02-01T03:45:37.798Z,28.17
2023-02-01T03:48:25.149Z,32.03
2023-02-01T03:51:11.745Z,20.35
2023-02-01T03:53:58.178Z,27.15
2023-02-01T03:56:47.137Z,22.17
2023-02-01T03:59:32.629Z,17.98
2023-02-01T04:02:18.015Z,32.17
2023-02-01T04:05:03.208Z,28.50
2023-02-01T04:07:48.456Z,30.75
2023-02-01T04:10:33.794Z,27.80
2023-02-01T04:13:18.994Z,24.02
2023-02-01T04:16:04.355Z,33.08
2023-02-01T04:18:50.041Z,35.25
2023-02-01T04:21:35.268Z,24.30
2023-02-01T04:24:20.397Z,28.70
2023-02-01T04:27:05.966Z,23.48
2023-02-01T04:29:51.077Z,38.53
2023-02-01T04:32:39.824Z,34.58
2023-02-01T04:35:25.413Z,27.90
2023-02-01T04:38:10.598Z,29.48
2023-02-01T04:40:55.893Z,28.63
2023-02-01T04:43:41.204Z,28.98
2023-02-01T04:46:26.768Z,40.80
2023-02-01T04:49:13.328Z,34.55
2023-02-01T04:51:58.388Z,28.05
2023-02-01T04:54:43.981Z,35.92
2023-02-01T04:57:29.467Z,30.48
2023-02-01T05:00:15.566Z,28.52
2023-02-01T05:03:01.078Z,28.38
2023-02-01T05:05:48.897Z,31.00
2023-02-01T05:08:35.956Z,29.73
2023-02-01T05:11:40.597Z,20.35
2023-02-01T05:14:25.737Z,29.38
2023-02-01T05:17:10.907Z,24.35
2023-02-01T05:19:56.598Z,33.50
2023-02-01T05:22:42.682Z,23.55
2023-02-01T05:25:28.342Z,30.45
2023-02-01T05:28:13.368Z,33.85
2023-02-01T05:30:58.825Z,33.58
2023-02-01T05:33:44.376Z,30.00
2023-02-01T05:36:29.666Z,23.20
2023-02-01T05:39:15.342Z,29.75
2023-02-01T05:42:00.501Z,25.75
2023-02-01T05:44:45.985Z,26.73
2023-02-01T05:47:31.229Z,27.90
2023-02-01T05:50:17.713Z,24.75
2023-02-01T05:53:02.877Z,23.35
2023-02-01T05:55:48.414Z,22.15
2023-02-01T05:58:34.063Z,26.40
2023-02-01T06:01:19.306Z,28.85
2023-02-01T06:04:04.801Z,22.52
2023-02-01T06:06:51.676Z,26.85
2023-02-01T06:09:37.597Z,28.55
2023-02-01T06:12:23.051Z,29.38
2023-02-01T06:15:09.318Z,23.40
2023-02-01T06:17:54.342Z,28.48
2023-02-01T06:20:40.363Z,28.65
2023-02-01T06:23:25.566Z,32.40
2023-02-01T06:26:11.181Z,27.63
2023-02-01T06:28:57.325Z,39.00
2023-02-01T06:31:43.770Z,24.17
2023-02-01T06:34:28.831Z,25.88
2023-02-01T06:37:14.933Z,29.45
2023-02-01T06:40:00.128Z,27.08
2023-02-01T06:42:46.303Z,24.80
2023-02-01T06:45:32.496Z,31.55
2023-02-01T06:48:28.026Z,29.33
2023-02-01T06:51:28.057Z,23.92
2023-02-01T06:54:13.345Z,22.60
2023-02-01T06:56:58.606Z,24.63
2023-02-01T06:59:43.799Z,27.25
2023-02-01T07:02:29.299Z,24.80
2023-02-01T07:05:14.863Z,25.20
2023-02-01T07:08:00.262Z,27.70
2023-02-01T07:10:45.448Z,30.05
2023-02-01T07:13:31.234Z,26.05
2023-02-01T07:16:18.910Z,22.83
2023-02-01T07:19:04.850Z,24.33
2023-02-01T07:21:50.540Z,26.83
2023-02-01T07:24:36.052Z,28.60
2023-02-01T07:27:21.250Z,33.95
2023-02-01T07:30:07.800Z,18.00
2023-02-01T07:32:52.936Z,29.08
2023-02-01T07:35:38.580Z,26.25
2023-02-01T07:38:24.680Z,19.05
2023-02-01T07:41:10.473Z,24.73
2023-02-01T07:43:56.048Z,24.05
2023-02-01T07:46:41.063Z,22.02
2023-02-01T07:49:26.718Z,21.60
2023-02-01T07:52:14.014Z,22.92
2023-02-01T07:54:59.355Z,22.00
2023-02-01T07:57:46.895Z,20.75
2023-02-01T08:01:01.344Z,17.13
2023-02-01T08:03:55.099Z,20.30
2023-02-01T08:06:41.109Z,24.70
2023-02-01T08:09:26.356Z,20.95
2023-02-01T08:12:11.711Z,19.67
2023-02-01T08:14:57.409Z,21.65
2023-02-01T08:17:49.930Z,15.45
2023-02-01T08:20:37.165Z,20.15
2023-02-01T08:23:23.368Z,23.80
2023-02-01T08:26:14.504Z,20.65
2023-02-01T08:29:01.711Z,19.05
2023-02-01T08:31:47.045Z,14.73
2023-02-01T08:34:34.812Z,21.52
2023-02-01T08:37:21.263Z,37.77
2023-02-01T08:40:07.173Z,21.48
2023-02-01T08:42:52.638Z,17.38
2023-02-01T08:45:38.073Z,15.63
2023-02-01T08:48:23.156Z,16.30
2023-02-01T08:51:12.247Z,15.07
2023-02-01T08:53:57.551Z,19.77
2023-02-01T08:56:42.774Z,16.70
2023-02-01T08:59:30.296Z,17.98
2023-02-01T09:02:17.884Z,9.00
2023-02-01T09:05:05.074Z,12.93
2023-02-01T09:07:50.495Z,9.65
2023-02-01T09:10:37.559Z,10.38
2023-02-01T09:13:23.358Z,11.68
2023-02-01T09:16:08.737Z,8.13
2023-02-01T09:19:22.145Z,4.05
2023-02-01T09:21:58.865Z,9.52
2023-02-01T09:24:45.001Z,7.82
2023-02-01T09:27:30.383Z,7.65
2023-02-01T09:30:16.044Z,6.40
2023-02-01T09:33:01.373Z,8.55
2023-02-01T09:35:46.829Z,8.65
2023-02-01T09:38:33.133Z,9.80
2023-02-01T09:41:47.893Z,7.57
2023-02-01T09:44:43.738Z,3.90
2023-02-01T09:47:30.692Z,7.18
2023-02-01T09:50:23.676Z,3.40
2023-02-01T09:53:21.971Z,6.18
2023-02-01T09:56:19.341Z,9.27
2023-02-01T09:59:24.551Z,4.72
2023-02-01T10:02:18.560Z,8.75
2023-02-01T10:05:04.231Z,7.63
2023-02-01T10:08:01.994Z,3.83
2023-02-01T10:10:49.994Z,6.03
2023-02-01T10:13:51.902Z,7.63
2023-02-01T10:16:37.778Z,7.38
2023-02-01T10:19:26.987Z,5.95
2023-02-01T10:22:55.999Z,8.30
2023-02-01T10:25:51.099Z,7.90
2023-02-01T10:28:38.951Z,9.05
2023-02-01T10:31:29.291Z,6.57
2023-02-01T10:34:27.019Z,7.57
2023-02-01T10:37:25.571Z,10.60
2023-02-01T10:40:10.858Z,6.90
2023-02-01T10:43:05.725Z,8.35
2023-02-01T10:45:51.157Z,6.57
2023-02-01T10:48:38.045Z,11.18
2023-02-01T10:51:40.263Z,16.00
2023-02-01T10:54:39.690Z,9.32
2023-02-01T11:00:25.521Z,5.20
2023-02-01T11:03:27.037Z,12.00
2023-02-01T11:06:41.224Z,8.55
2023-02-01T11:09:26.586Z,11.27
2023-02-01T11:12:34.928Z,8.73
2023-02-01T11:15:25.750Z,9.75
2023-02-01T11:18:32.256Z,9.50
2023-02-01T11:21:17.504Z,13.85
2023-02-01T11:24:10.243Z,17.05
2023-02-01T11:26:57.899Z,10.18
2023-02-01T11:29:47.907Z,8.35
2023-02-01T11:32:33.271Z,14.30
2023-02-01T11:35:22.706Z,11.25
2023-02-01T11:38:29.773Z,9.85
2023-02-01T11:41:26.191Z,14.77
2023-02-01T11:44:38.436Z,20.13
2023-02-01T11:47:29.574Z,14.43
2023-02-01T11:50:29.940Z,12.82
2023-02-01T11:53:26.177Z,14.70
2023-02-01T11:56:36.880Z,13.98
2023-02-01T11:59:58.570Z,11.18
2023-02-01T12:03:06.312Z,13.38
2023-02-01T12:06:11.512Z,12.95
2023-02-01T12:09:38.211Z,12.55
2023-02-01T12:12:30.683Z,8.52
2023-02-01T12:15:30.190Z,7.55
2023-02-01T12:19:00.022Z,10.10
2023-02-01T12:22:09.716Z,8.30
2023-02-01T12:25:31.065Z,10.30
2023-02-01T12:28:31.629Z,13.10
2023-02-01T12:31:24.915Z,11.80
2023-02-01T12:34:39.730Z,13.77
2023-02-01T12:37:56.654Z,11.25
2023-02-01T12:40:48.063Z,11.13
2023-02-01T12:43:58.184Z,17.17
2023-02-01T12:46:50.419Z,13.48
2023-02-01T12:49:57.229Z,14.85
2023-02-01T12:52:52.640Z,14.77
2023-02-01T12:55:50.614Z,10.40
2023-02-01T12:58:44.278Z,13.03
2023-02-01T13:01:40.201Z,16.02
2023-02-01T13:04:43.485Z,12.55
2023-02-01T13:07:49.098Z,8.43
2023-02-01T13:10:39.746Z,16.13
2023-02-01T13:13:34.403Z,8.23
2023-02-01T13:16:41.510Z,15.20
2023-02-01T13:19:47.781Z,10.60
2023-02-01T13:22:58.288Z,12.52
2023-02-01T13:25:52.137Z,13.15
2023-02-01T13:28:47.214Z,10.90
2023-02-01T13:32:18.294Z,14.25
2023-02-01T13:35:29.914Z,13.60
2023-02-01T13:38:55.871Z,12.27
2023-02-01T13:41:53.004Z,9.57
2023-02-01T13:44:43.941Z,13.77
2023-02-01T13:47:32.998Z,6.90
2023-02-01T13:50:22.202Z,14.03
2023-02-01T13:53:13.344Z,19.17
2023-02-01T13:56:04.702Z,17.17
2023-02-01T13:58:52.310Z,16.75
2023-02-01T14:01:38.075Z,11.52
2023-02-01T14:04:51.103Z,16.98
2023-02-01T14:07:36.636Z,15.23
2023-02-01T14:10:51.840Z,13.10
2023-02-01T14:13:42.500Z,20.60
2023-02-01T14:16:27.849Z,15.05
2023-02-01T14:19:24.821Z,16.35
2023-02-01T14:22:25.237Z,13.57
2023-02-01T14:25:19.637Z,16.23
2023-02-01T14:28:13.324Z,15.25
2023-02-01T14:31:00.517Z,23.10
2023-02-01T14:33:46.753Z,14.35
2023-02-01T14:36:48.579Z,17.85
2023-02-01T14:39:45.837Z,14.52
2023-02-01T14:42:43.302Z,13.77
2023-02-01T14:45:29.439Z,19.45
2023-02-01T14:48:14.895Z,18.88
2023-02-01T14:51:02.137Z,20.10
2023-02-01T14:53:47.887Z,15.68
2023-02-01T14:56:33.410Z,17.88
2023-02-01T14:59:24.381Z,13.32
2023-02-01T15:02:22.527Z,18.90
2023-02-01T15:05:26.531Z,18.08
2023-02-01T15:08:24.040Z,10.32
2023-02-01T15:11:15.806Z,11.05
2023-02-01T15:14:01.614Z,10.95
2023-02-01T15:16:54.413Z,9.07
2023-02-01T15:19:40.191Z,9.30
2023-02-01T15:22:26.975Z,8.00
2023-02-01T15:25:22.640Z,10.18
2023-02-01T15:28:14.534Z,10.20
2023-02-01T15:31:06.317Z,6.03
2023-02-01T15:33:58.494Z,11.10
2023-02-01T15:37:00.298Z,11.20
2023-02-01T15:40:12.773Z,5.38
2023-02-01T15:43:00.320Z,6.38
2023-02-01T15:45:45.618Z,3.55
2023-02-01T15:48:39.129Z,3.33
2023-02-01T15:51:33.499Z,4.97
2023-02-01T15:54:24.021Z,7.00
2023-02-01T15:57:09.375Z,6.85
2023-02-01T15:59:56.269Z,3.42
2023-02-01T16:02:55.424Z,3.10
2023-02-01T16:05:45.829Z,3.15
2023-02-01T16:08:37.519Z,3.65
2023-02-01T16:11:25.540Z,2.47
2023-02-01T16:14:10.952Z,3.63
2023-02-01T16:16:59.667Z,4.05
2023-02-01T16:19:45.739Z,3.38
2023-02-01T16:22:32.547Z,2.70
2023-02-01T16:25:18.296Z,4.78
2023-02-01T16:28:03.934Z,2.58
2023-02-01T16:30:49.882Z,3.78
2023-02-01T16:33:38.058Z,6.60
2023-02-01T16:36:23.361Z,7.47
2023-02-01T16:39:12.308Z,4.63
2023-02-01T16:42:00.718Z,1.38
2023-02-01T16:44:46.945Z,1.80
2023-02-01T16:47:32.283Z,3.70
2023-02-01T16:50:24.380Z,0.82
2023-02-01T16:53:13.882Z,1.75
2023-02-01T16:56:00.281Z,3.75
2023-02-01T16:58:46.286Z,2.20
2023-02-01T17:01:32.020Z,2.15
2023-02-01T17:04:25.350Z,2.70
2023-02-01T17:07:15.172Z,3.97
2023-02-01T17:10:00.597Z,2.80
2023-02-01T17:12:46.246Z,4.15
2023-02-01T17:15:35.578Z,2.25
2023-02-01T17:18:21.065Z,6.15
2023-02-01T17:21:08.275Z,5.47
2023-02-01T17:23:55.419Z,10.25
2023-02-01T17:26:41.837Z,7.63
2023-02-01T17:29:27.000Z,28.35
2023-02-01T17:32:21.616Z,11.57
2023-02-01T17:35:21.969Z,11.50
2023-02-01T17:38:12.186Z,23.52
2023-02-01T17:40:57.563Z,8.52
2023-02-01T17:43:42.905Z,11.57
2023-02-01T17:46:28.572Z,7.13
2023-02-01T17:49:14.268Z,9.48
2023-02-01T17:52:00.876Z,12.45
2023-02-01T17:54:47.701Z,9.35
2023-02-01T17:57:33.085Z,7.88
2023-02-01T18:00:19.501Z,9.65
2023-02-01T18:03:05.042Z,13.95
2023-02-01T18:05:53.664Z,7.53
2023-02-01T18:08:39.589Z,14.68
2023-02-01T18:11:25.434Z,12.13
2023-02-01T18:14:19.403Z,9.27
2023-02-01T18:17:05.449Z,7.60
2023-02-01T18:19:50.922Z,10.65
2023-02-01T18:22:36.372Z,10.35
2023-02-01T18:25:25.766Z,11.15
2023-02-01T18:28:11.180Z,12.82
2023-02-01T18:30:56.944Z,17.92
2023-02-01T18:33:42.300Z,16.20
2023-02-01T18:36:28.712Z,19.15
2023-02-01T18:39:14.139Z,15.55
2023-02-01T18:42:00.275Z,10.15
2023-02-01T18:44:47.492Z,7.53
2023-02-01T18:47:33.479Z,18.27
2023-02-01T18:50:19.703Z,16.33
2023-02-01T18:53:08.111Z,15.10
2023-02-01T18:55:55.739Z,12.30
2023-02-01T18:58:41.748Z,11.98
2023-02-01T19:01:26.950Z,13.57
2023-02-01T19:04:19.232Z,8.98
2023-02-01T19:07:05.659Z,16.45
2023-02-01T19:09:51.333Z,10.07
2023-02-01T19:12:39.074Z,7.28
2023-02-01T19:15:26.073Z,14.75
2023-02-01T19:18:11.589Z,13.40
2023-02-01T19:21:02.961Z,11.73
2023-02-01T19:23:48.356Z,19.08
2023-02-01T19:26:33.667Z,10.32
2023-02-01T19:29:19.474Z,9.98
2023-02-01T19:32:05.386Z,9.18
2023-02-01T19:34:51.032Z,12.48
2023-02-01T19:37:36.488Z,15.07
2023-02-01T19:40:22.437Z,18.55
2023-02-01T19:43:07.739Z,12.88
2023-02-01T19:45:54.221Z,10.95
2023-02-01T19:48:39.609Z,8.25
2023-02-01T19:51:24.813Z,14.65
2023-02-01T19:54:10.986Z,17.92
2023-02-01T19:56:56.454Z,11.65
2023-02-01T19:59:41.945Z,14.93
2023-02-01T20:02:28.631Z,16.40
2023-02-01T20:05:15.411Z,9.30
2023-02-01T20:08:01.432Z,15.23
2023-02-01T20:10:46.657Z,22.67
2023-02-01T20:13:34.641Z,12.80
2023-02-01T20:16:21.352Z,33.90
2023-02-01T20:19:09.131Z,11.45
2023-02-01T20:21:54.630Z,16.85
2023-02-01T20:24:40.087Z,20.80
2023-02-01T20:27:26.324Z,20.67
2023-02-01T20:30:14.048Z,19.23
2023-02-01T20:32:59.447Z,26.60
2023-02-01T20:35:45.286Z,17.48
2023-02-01T20:38:30.327Z,20.65
2023-02-01T20:41:16.079Z,23.45
2023-02-01T20:44:01.195Z,15.85
2023-02-01T20:46:47.533Z,13.57
2023-02-01T20:49:34.640Z,14.77
2023-02-01T20:52:19.824Z,16.73
2023-02-01T20:55:06.457Z,11.15
2023-02-01T20:57:53.559Z,13.65
2023-02-01T21:00:39.205Z,13.52
2023-02-01T21:03:25.968Z,17.42
2023-02-01T21:06:16.328Z,20.23
2023-02-01T21:09:01.640Z,17.40
2023-02-01T21:11:46.969Z,14.52
2023-02-01T21:14:32.078Z,12.23
2023-02-01T21:17:17.315Z,14.43
2023-02-01T21:20:03.785Z,15.32
2023-02-01T21:22:48.950Z,13.25
2023-02-01T21:25:34.769Z,18.33
2023-02-01T21:28:20.267Z,21.10
2023-02-01T21:31:06.444Z,18.98
2023-02-01T21:33:52.367Z,20.83
2023-02-01T21:36:37.610Z,16.55
2023-02-01T21:39:23.112Z,10.73
2023-02-01T21:42:17.529Z,12.68
2023-02-01T21:45:03.067Z,19.40
2023-02-01T21:47:49.707Z,15.88
2023-02-01T21:50:35.261Z,19.90
2023-02-01T21:53:20.696Z,11.20
2023-02-01T21:56:06.331Z,16.13
2023-02-01T21:58:51.907Z,19.00
2023-02-01T22:01:39.007Z,15.48
2023-02-01T22:04:24.436Z,10.82
2023-02-01T22:07:10.496Z,10.52
2023-02-01T22:09:55.900Z,15.70
2023-02-01T22:12:41.255Z,11.52
2023-02-01T22:15:29.091Z,11.18
2023-02-01T22:18:14.417Z,14.70
2023-02-01T22:21:00.402Z,20.70
2023-02-01T22:23:51.212Z,13.88
2023-02-01T22:26:37.221Z,12.55
2023-02-01T22:29:23.707Z,10.93
2023-02-01T22:32:09.214Z,11.27
2023-02-01T22:34:57.516Z,7.95
2023-02-01T22:37:44.310Z,14.75
2023-02-01T22:40:29.726Z,13.85
2023-02-01T22:43:15.013Z,12.48
2023-02-01T22:46:02.220Z,15.82
2023-02-01T22:48:47.462Z,17.42
2023-02-01T22:51:33.268Z,13.38
2023-02-01T22:54:21.404Z,15.02
2023-02-01T22:57:08.052Z,17.35
2023-02-01T22:59:53.103Z,13.90
2023-02-01T23:02:41.701Z,19.98
2023-02-01T23:05:27.194Z,20.73
2023-02-01T23:08:12.421Z,20.73
2023-02-01T23:11:09.273Z,19.05
2023-02-01T23:13:55.303Z,21.50
2023-02-01T23:16:41.418Z,25.48
2023-02-01T23:19:26.641Z,23.05
2023-02-01T23:22:12.052Z,15.05
2023-02-01T23:24:57.611Z,24.70
2023-02-01T23:27:43.784Z,27.70
2023-02-01T23:30:29.043Z,25.60
2023-02-01T23:33:14.261Z,26.27
2023-02-01T23:36:02.298Z,22.33
2023-02-01T23:38:48.295Z,15.50
2023-02-01T23:41:33.631Z,19.85
2023-02-01T23:44:18.908Z,17.60
2023-02-01T23:47:04.440Z,21.88
2023-02-01T23:49:49.724Z,29.55
2023-02-01T23:52:34.980Z,21.65
2023-02-01T23:55:20.451Z,27.63
2023-02-01T23:58:06.045Z,22.23
